createdAt,value
2018-06-14T00:01:28.487Z,17.54
2018-06-14T00:03:57.138Z,17.46
2018-06-14T00:06:26.032Z,17.43
2018-06-14T00:08:55.371Z,17.37
2018-06-14T00:11:24.543Z,17.35
2018-06-14T00:13:53.295Z,17.34
2018-06-14T00:16:22.085Z,17.34
2018-06-14T00:18:50.734Z,17.38
2018-06-14T00:21:19.418Z,17.37
2018-06-14T00:23:48.071Z,17.37
2018-06-14T00:26:16.676Z,17.38
2018-06-14T00:28:45.713Z,17.36
2018-06-14T00:31:14.312Z,17.34
2018-06-14T00:33:43.059Z,17.31
2018-06-14T00:36:11.697Z,17.28
2018-06-14T00:38:40.288Z,17.24
2018-06-14T00:41:08.918Z,17.21
2018-06-14T00:43:37.498Z,17.17
2018-06-14T00:46:06.138Z,17.17
2018-06-14T00:48:34.549Z,17.21
2018-06-14T00:51:03.176Z,17.16
2018-06-14T00:53:31.845Z,17.11
2018-06-14T00:56:00.468Z,17.07
2018-06-14T00:58:29.064Z,17.05
2018-06-14T01:00:57.638Z,17.04
2018-06-14T01:03:26.225Z,17.04
2018-06-14T01:05:54.786Z,17.09
2018-06-14T01:08:23.630Z,17.14
2018-06-14T01:10:52.648Z,17.16
2018-06-14T01:13:21.678Z,17.17
2018-06-14T01:15:50.655Z,17.19
2018-06-14T01:18:20.042Z,17.15
2018-06-14T01:20:48.981Z,17.23
2018-06-14T01:23:17.675Z,17.10
2018-06-14T01:25:46.371Z,17.07
2018-06-14T01:28:15.163Z,17.09
2018-06-14T01:30:44.078Z,17.12
2018-06-14T01:33:13.055Z,17.24
2018-06-14T01:35:42.003Z,17.29
2018-06-14T01:38:24.205Z,17.25
2018-06-14T01:40:53.634Z,17.13
2018-06-14T01:43:22.885Z,17.07
2018-06-14T01:45:51.896Z,17.18
2018-06-14T01:48:21.064Z,17.13
2018-06-14T01:50:50.819Z,17.08
2018-06-14T01:53:19.800Z,17.02
2018-06-14T01:55:48.456Z,17.13
2018-06-14T01:58:18.353Z,16.97
2018-06-14T02:00:47.230Z,16.85
2018-06-14T02:03:16.100Z,16.80
2018-06-14T02:05:44.778Z,16.76
2018-06-14T02:08:13.456Z,16.78
2018-06-14T02:10:42.068Z,16.77
2018-06-14T02:13:10.689Z,16.87
2018-06-14T02:15:39.223Z,17.06
2018-06-14T02:18:08.160Z,16.99
2018-06-14T02:20:37.069Z,16.88
2018-06-14T02:23:05.993Z,16.84
2018-06-14T02:25:34.879Z,16.86
2018-06-14T02:28:03.745Z,16.91
2018-06-14T02:30:32.661Z,16.93
2018-06-14T02:33:01.538Z,17.10
2018-06-14T02:35:30.201Z,17.10
2018-06-14T02:37:58.988Z,17.05
2018-06-14T02:40:27.656Z,17.07
2018-06-14T02:42:56.100Z,17.09
2018-06-14T02:45:24.691Z,17.14
2018-06-14T02:47:53.284Z,17.14
2018-06-14T02:50:21.933Z,17.15
2018-06-14T02:52:50.533Z,17.18
2018-06-14T02:55:19.310Z,17.17
2018-06-14T02:57:48.190Z,17.16
2018-06-14T03:00:17.046Z,17.19
2018-06-14T03:02:45.733Z,17.16
2018-06-14T03:05:14.491Z,17.15
2018-06-14T03:07:43.543Z,17.11
2018-06-14T03:10:12.139Z,17.32
2018-06-14T03:12:40.753Z,17.21
2018-06-14T03:15:09.364Z,17.21
2018-06-14T03:17:37.753Z,17.42
2018-06-14T03:20:06.390Z,17.37
2018-06-14T03:22:35.044Z,17.28
2018-06-14T03:25:03.663Z,17.25
2018-06-14T03:27:32.251Z,17.19
2018-06-14T03:30:00.923Z,17.17
2018-06-14T03:32:29.551Z,17.47
2018-06-14T03:34:58.315Z,17.41
2018-06-14T03:37:27.205Z,17.25
2018-06-14T03:39:56.091Z,17.21
2018-06-14T03:42:25.158Z,17.18
2018-06-14T03:44:53.950Z,17.14
2018-06-14T03:47:22.563Z,17.14
2018-06-14T03:49:51.155Z,17.14
2018-06-14T03:52:19.741Z,17.16
2018-06-14T03:54:48.258Z,17.16
2018-06-14T03:57:17.130Z,17.16
2018-06-14T03:59:46.005Z,17.31
2018-06-14T04:02:14.867Z,17.22
2018-06-14T04:04:43.612Z,17.23
2018-06-14T04:07:12.226Z,17.22
2018-06-14T04:09:40.878Z,17.25
2018-06-14T04:12:09.473Z,17.27
2018-06-14T04:14:38.315Z,17.28
2018-06-14T04:17:07.231Z,17.32
2018-06-14T04:19:36.109Z,17.35
2018-06-14T04:22:05.060Z,17.40
2018-06-14T04:24:34.023Z,17.46
2018-06-14T04:27:02.932Z,17.55
2018-06-14T04:29:31.818Z,17.65
2018-06-14T04:32:00.691Z,17.83
2018-06-14T04:34:29.420Z,17.73
2018-06-14T04:36:58.033Z,17.71
2018-06-14T04:39:26.698Z,17.75
2018-06-14T04:41:55.291Z,18.12
2018-06-14T04:44:23.906Z,18.15
2018-06-14T04:46:52.813Z,18.17
2018-06-14T04:49:21.707Z,18.28
2018-06-14T04:51:50.581Z,18.38
2018-06-14T04:54:19.538Z,18.55
2018-06-14T04:56:48.271Z,18.62
2018-06-14T04:59:17.151Z,18.62
2018-06-14T05:01:45.893Z,18.69
2018-06-14T05:04:14.591Z,18.77
2018-06-14T05:06:43.189Z,18.97
2018-06-14T05:09:13.491Z,19.09
2018-06-14T05:11:42.456Z,19.15
2018-06-14T05:14:11.465Z,19.25
2018-06-14T05:16:40.426Z,19.34
2018-06-14T05:19:09.381Z,19.54
2018-06-14T05:21:38.306Z,19.63
2018-06-14T05:24:07.307Z,19.70
2018-06-14T05:26:36.266Z,19.69
2018-06-14T05:29:05.281Z,19.81
2018-06-14T05:31:33.906Z,19.99
2018-06-14T05:34:02.507Z,20.19
2018-06-14T05:36:31.299Z,20.19
2018-06-14T05:39:00.266Z,20.34
2018-06-14T05:41:29.157Z,20.33
2018-06-14T05:43:58.044Z,20.52
2018-06-14T05:46:26.991Z,20.40
2018-06-14T05:48:55.619Z,20.46
2018-06-14T05:51:24.186Z,20.32
2018-06-14T05:53:52.787Z,20.38
2018-06-14T05:56:21.419Z,20.38
2018-06-14T05:58:50.065Z,20.24
2018-06-14T06:01:18.711Z,20.06
2018-06-14T06:03:47.337Z,20.18
2018-06-14T06:06:15.799Z,20.08
2018-06-14T06:08:44.512Z,20.25
2018-06-14T06:11:13.106Z,20.20
2018-06-14T06:13:41.714Z,20.31
2018-06-14T06:16:10.404Z,20.39
2018-06-14T06:18:38.979Z,20.64
2018-06-14T06:21:07.669Z,20.57
2018-06-14T06:23:36.344Z,20.92
2018-06-14T06:26:05.007Z,21.02
2018-06-14T06:28:33.774Z,21.32
2018-06-14T06:31:02.740Z,21.73
2018-06-14T06:33:31.708Z,22.49
2018-06-14T06:36:00.567Z,23.00
2018-06-14T06:38:29.519Z,23.37
2018-06-14T06:40:58.869Z,23.89
2018-06-14T06:43:27.763Z,24.24
2018-06-14T06:45:56.684Z,23.91
2018-06-14T06:48:25.691Z,23.99
2018-06-14T06:50:54.356Z,24.10
2018-06-14T06:53:23.318Z,23.87
2018-06-14T06:55:51.947Z,23.99
2018-06-14T06:58:20.529Z,24.48
2018-06-14T07:00:49.087Z,24.59
2018-06-14T07:03:17.722Z,24.74
2018-06-14T07:05:46.282Z,24.21
2018-06-14T07:08:14.826Z,24.44
2018-06-14T07:10:43.446Z,24.65
2018-06-14T07:13:12.024Z,24.35
2018-06-14T07:15:40.602Z,24.45
2018-06-14T07:18:09.295Z,24.91
2018-06-14T07:20:37.879Z,25.20
2018-06-14T07:23:06.482Z,25.13
2018-06-14T07:25:35.044Z,25.15
2018-06-14T07:28:03.627Z,26.03
2018-06-14T07:30:32.213Z,26.19
2018-06-14T07:33:00.808Z,26.64
2018-06-14T07:35:29.356Z,26.95
2018-06-14T07:37:57.961Z,27.23
2018-06-14T07:40:26.756Z,27.43
2018-06-14T07:42:55.752Z,27.29
2018-06-14T07:45:24.644Z,26.90
2018-06-14T07:47:53.535Z,26.76
2018-06-14T07:50:22.496Z,27.15
2018-06-14T07:52:51.418Z,27.36
2018-06-14T07:55:20.337Z,27.55
2018-06-14T07:57:49.013Z,27.92
2018-06-14T08:00:17.484Z,28.73
2018-06-14T08:02:46.074Z,28.02
2018-06-14T08:05:14.664Z,28.44
2018-06-14T08:07:43.334Z,28.26
2018-06-14T08:10:11.926Z,28.22
2018-06-14T08:12:40.525Z,27.99
2018-06-14T08:15:09.924Z,27.67
2018-06-14T08:17:38.776Z,27.42
2018-06-14T08:20:07.641Z,27.05
2018-06-14T08:22:36.551Z,26.93
2018-06-14T08:25:05.309Z,26.89
2018-06-14T08:27:34.004Z,26.57
2018-06-14T08:30:02.694Z,26.76
2018-06-14T08:32:31.336Z,26.99
2018-06-14T08:35:00.211Z,26.92
2018-06-14T08:37:30.564Z,26.70
2018-06-14T08:39:59.551Z,26.75
2018-06-14T08:42:28.583Z,26.58
2018-06-14T08:44:57.631Z,27.25
2018-06-14T08:47:26.661Z,28.01
2018-06-14T08:49:55.558Z,27.79
2018-06-14T08:52:24.614Z,28.37
2018-06-14T08:54:55.056Z,28.25
2018-06-14T08:57:24.218Z,27.84
2018-06-14T08:59:53.353Z,27.59
2018-06-14T09:02:22.231Z,28.07
2018-06-14T09:04:52.271Z,28.20
2018-06-14T09:07:21.176Z,28.29
2018-06-14T09:09:50.171Z,27.76
2018-06-14T09:12:19.087Z,27.77
2018-06-14T09:14:48.063Z,27.64
2018-06-14T09:17:17.014Z,28.26
2018-06-14T09:19:45.701Z,28.82
2018-06-14T09:22:14.276Z,29.07
2018-06-14T09:24:42.918Z,29.25
2018-06-14T09:27:11.565Z,29.18
2018-06-14T09:29:40.246Z,29.49
2018-06-14T09:32:09.049Z,29.27
2018-06-14T09:34:37.628Z,29.66
2018-06-14T09:37:06.286Z,29.41
2018-06-14T09:39:35.126Z,29.04
2018-06-14T09:42:04.069Z,29.25
2018-06-14T09:44:33.021Z,29.73
2018-06-14T09:47:01.948Z,29.89
2018-06-14T09:49:30.868Z,29.54
2018-06-14T09:51:59.737Z,29.28
2018-06-14T09:54:28.651Z,29.10
2018-06-14T09:56:57.605Z,29.11
2018-06-14T09:59:26.452Z,29.36
2018-06-14T10:01:55.066Z,28.92
2018-06-14T10:04:23.719Z,28.83
2018-06-14T10:06:52.363Z,29.14
2018-06-14T10:09:21.065Z,29.25
2018-06-14T10:11:49.617Z,29.21
2018-06-14T10:14:18.286Z,29.43
2018-06-14T10:16:46.948Z,29.85
2018-06-14T10:19:15.696Z,30.13
2018-06-14T10:21:44.449Z,30.62
2018-06-14T10:24:13.111Z,30.54
2018-06-14T10:26:41.744Z,30.33
2018-06-14T10:29:10.558Z,30.48
2018-06-14T10:31:39.629Z,30.25
2018-06-14T10:34:08.505Z,30.57
2018-06-14T10:36:37.501Z,31.00
2018-06-14T10:39:08.139Z,30.85
2018-06-14T10:41:36.912Z,31.12
2018-06-14T10:44:05.515Z,31.36
2018-06-14T10:46:34.196Z,31.41
2018-06-14T10:49:02.771Z,30.94
2018-06-14T10:51:31.654Z,30.09
2018-06-14T10:54:00.606Z,30.45
2018-06-14T10:56:29.556Z,30.58
2018-06-14T10:58:58.524Z,31.21
2018-06-14T11:01:27.476Z,31.68
2018-06-14T11:03:56.413Z,31.57
2018-06-14T11:06:25.408Z,31.32
2018-06-14T11:08:54.363Z,30.80
2018-06-14T11:11:23.309Z,30.15
2018-06-14T11:13:52.179Z,30.31
2018-06-14T11:16:21.124Z,30.67
2018-06-14T11:18:50.344Z,31.40
2018-06-14T11:21:19.264Z,31.14
2018-06-14T11:23:48.312Z,29.98
2018-06-14T11:26:16.918Z,29.60
2018-06-14T11:28:45.933Z,30.08
2018-06-14T11:31:14.807Z,30.55
2018-06-14T11:33:43.567Z,30.41
2018-06-14T11:36:14.842Z,30.00
2018-06-14T11:38:43.604Z,30.94
2018-06-14T11:41:12.808Z,31.63
2018-06-14T11:43:41.651Z,31.72
2018-06-14T11:46:10.837Z,32.34
2018-06-14T11:48:39.716Z,32.41
2018-06-14T11:51:09.414Z,31.72
2018-06-14T11:53:38.276Z,31.20
2018-06-14T11:56:07.411Z,31.18
2018-06-14T11:58:36.301Z,30.70
2018-06-14T12:01:06.715Z,30.42
2018-06-14T12:03:35.499Z,30.23
2018-06-14T12:06:04.484Z,30.38
2018-06-14T12:08:33.894Z,29.80
2018-06-14T12:11:03.000Z,29.11
2018-06-14T12:13:32.177Z,28.76
2018-06-14T12:16:01.504Z,28.72
2018-06-14T12:18:30.545Z,28.67
2018-06-14T12:20:59.649Z,28.65
2018-06-14T12:23:28.517Z,28.54
2018-06-14T12:25:57.189Z,28.78
2018-06-14T12:28:25.919Z,28.74
2018-06-14T12:30:54.959Z,29.12
2018-06-14T12:33:24.396Z,29.55
2018-06-14T12:35:53.052Z,29.88
2018-06-14T12:38:22.544Z,30.46
2018-06-14T12:40:51.134Z,30.64
2018-06-14T12:43:20.052Z,30.89
2018-06-14T12:45:48.977Z,31.27
2018-06-14T12:48:18.009Z,31.30
2018-06-14T12:50:47.100Z,30.94
2018-06-14T12:53:16.433Z,29.52
2018-06-14T12:55:45.684Z,29.98
2018-06-14T12:58:14.704Z,30.66
2018-06-14T13:00:43.724Z,31.08
2018-06-14T13:03:13.040Z,31.32
2018-06-14T13:05:42.125Z,31.62
2018-06-14T13:08:11.051Z,31.49
2018-06-14T13:10:39.913Z,31.53
2018-06-14T13:13:08.898Z,32.08
2018-06-14T13:15:39.969Z,31.83
2018-06-14T13:18:09.089Z,31.91
2018-06-14T13:20:38.400Z,32.07
2018-06-14T13:23:08.166Z,30.82
2018-06-14T13:25:36.691Z,29.74
2018-06-14T13:28:05.476Z,28.90
2018-06-14T13:30:34.169Z,28.41
2018-06-14T13:33:03.484Z,27.94
2018-06-14T13:35:32.410Z,27.75
2018-06-14T13:38:01.376Z,28.55
2018-06-14T13:40:30.341Z,29.98
2018-06-14T13:42:59.325Z,30.36
2018-06-14T13:45:29.046Z,29.48
2018-06-14T13:47:57.968Z,29.61
2018-06-14T13:50:26.961Z,30.39
2018-06-14T13:52:55.776Z,31.08
2018-06-14T13:55:24.468Z,30.31
2018-06-14T13:57:53.238Z,30.61
2018-06-14T14:00:21.881Z,30.82
2018-06-14T14:02:50.709Z,30.09
2018-06-14T14:05:19.853Z,29.69
2018-06-14T14:07:48.998Z,29.18
2018-06-14T14:10:17.930Z,29.11
2018-06-14T14:12:46.825Z,29.47
2018-06-14T14:15:15.716Z,29.90
2018-06-14T14:17:44.777Z,30.27
2018-06-14T14:20:13.688Z,30.38
2018-06-14T14:22:42.419Z,30.38
2018-06-14T14:25:10.986Z,30.96
2018-06-14T14:27:39.635Z,30.99
2018-06-14T14:30:08.300Z,30.74
2018-06-14T14:32:36.804Z,30.60
2018-06-14T14:35:05.715Z,30.47
2018-06-14T14:37:34.678Z,30.26
2018-06-14T14:40:03.618Z,30.26
2018-06-14T14:42:32.538Z,30.48
2018-06-14T14:45:01.846Z,31.09
2018-06-14T14:47:30.818Z,31.29
2018-06-14T14:49:59.783Z,31.55
2018-06-14T14:52:28.703Z,31.47
2018-06-14T14:54:57.620Z,31.31
2018-06-14T14:57:26.536Z,30.98
2018-06-14T14:59:55.485Z,31.66
2018-06-14T15:02:24.467Z,32.06
2018-06-14T15:04:53.404Z,31.11
2018-06-14T15:07:22.331Z,30.21
2018-06-14T15:09:51.271Z,29.97
2018-06-14T15:12:20.279Z,29.65
2018-06-14T15:14:49.604Z,28.95
2018-06-14T15:17:18.524Z,28.79
2018-06-14T15:19:48.102Z,27.08
2018-06-14T15:22:16.789Z,29.40
2018-06-14T15:24:45.480Z,29.60
2018-06-14T15:27:14.186Z,29.82
2018-06-14T15:29:42.932Z,30.19
2018-06-14T15:32:11.816Z,30.04
2018-06-14T15:34:40.811Z,30.23
2018-06-14T15:37:09.762Z,29.88
2018-06-14T15:39:38.695Z,30.23
2018-06-14T15:42:08.337Z,30.42
2018-06-14T15:44:37.266Z,30.67
2018-06-14T15:47:06.296Z,30.35
2018-06-14T15:49:36.241Z,30.46
2018-06-14T15:52:05.436Z,29.99
2018-06-14T15:54:34.988Z,29.73
2018-06-14T15:57:04.712Z,29.73
2018-06-14T15:59:33.737Z,29.90
2018-06-14T16:02:02.663Z,29.74
2018-06-14T16:04:32.168Z,29.49
2018-06-14T16:07:01.151Z,28.57
2018-06-14T16:09:30.051Z,28.10
2018-06-14T16:11:58.696Z,28.01
2018-06-14T16:14:27.656Z,28.23
2018-06-14T16:16:57.116Z,28.87
2018-06-14T16:19:26.051Z,29.22
2018-06-14T16:21:55.558Z,29.34
2018-06-14T16:24:24.591Z,29.73
2018-06-14T16:26:53.567Z,29.62
2018-06-14T16:29:22.578Z,29.80
2018-06-14T16:31:51.499Z,29.78
2018-06-14T16:34:20.429Z,28.30
2018-06-14T16:36:49.374Z,27.68
2018-06-14T16:39:18.342Z,27.50
2018-06-14T16:41:47.698Z,27.06
2018-06-14T16:44:16.505Z,26.90
2018-06-14T16:46:45.107Z,26.57
2018-06-14T16:49:13.764Z,26.36
2018-06-14T16:51:42.504Z,26.40
2018-06-14T16:54:11.164Z,26.42
2018-06-14T16:56:39.794Z,25.59
2018-06-14T16:59:08.399Z,26.39
2018-06-14T17:01:37.010Z,26.07
2018-06-14T17:04:05.991Z,25.94
2018-06-14T17:06:34.659Z,25.79
2018-06-14T17:09:03.845Z,25.48
2018-06-14T17:11:33.306Z,25.27
2018-06-14T17:14:01.914Z,25.06
2018-06-14T17:16:30.850Z,25.04
2018-06-14T17:18:59.870Z,24.91
2018-06-14T17:21:28.664Z,24.83
2018-06-14T17:23:57.363Z,24.66
2018-06-14T17:26:26.125Z,24.52
2018-06-14T17:28:55.581Z,24.38
2018-06-14T17:31:24.344Z,24.46
2018-06-14T17:33:53.136Z,24.46
2018-06-14T17:36:21.854Z,24.40
2018-06-14T17:38:50.569Z,24.33
2018-06-14T17:41:19.384Z,24.38
2018-06-14T17:43:48.936Z,24.33
2018-06-14T17:46:17.692Z,24.26
2018-06-14T17:48:46.804Z,24.22
2018-06-14T17:51:15.985Z,24.05
2018-06-14T17:53:45.139Z,23.92
2018-06-14T17:56:13.916Z,23.83
2018-06-14T17:58:42.823Z,23.70
2018-06-14T18:01:11.538Z,23.64
2018-06-14T18:03:40.174Z,23.46
2018-06-14T18:06:08.811Z,23.35
2018-06-14T18:08:37.588Z,23.24
2018-06-14T18:11:06.576Z,23.16
2018-06-14T18:13:35.184Z,23.10
2018-06-14T18:16:03.783Z,23.00
2018-06-14T18:18:32.386Z,22.88
2018-06-14T18:21:01.185Z,22.79
2018-06-14T18:23:30.089Z,22.87
2018-06-14T18:25:58.996Z,22.77
2018-06-14T18:28:27.891Z,22.66
2018-06-14T18:30:57.179Z,22.67
2018-06-14T18:33:25.804Z,22.51
2018-06-14T18:35:54.558Z,22.31
2018-06-14T18:38:23.178Z,22.24
2018-06-14T18:40:51.796Z,22.20
2018-06-14T18:43:20.468Z,22.13
2018-06-14T18:45:49.231Z,22.07
2018-06-14T18:48:17.950Z,22.03
2018-06-14T18:50:46.804Z,21.86
2018-06-14T18:53:16.353Z,21.75
2018-06-14T18:55:45.488Z,21.67
2018-06-14T18:58:14.451Z,21.59
2018-06-14T19:00:43.319Z,21.53
2018-06-14T19:03:12.231Z,21.50
2018-06-14T19:05:41.122Z,21.46
2018-06-14T19:08:10.071Z,21.45
2018-06-14T19:10:39.424Z,21.41
2018-06-14T19:13:09.206Z,21.41
2018-06-14T19:15:38.878Z,21.49
2018-06-14T19:18:07.584Z,21.61
2018-06-14T19:20:36.183Z,21.55
2018-06-14T19:23:04.854Z,21.53
2018-06-14T19:25:40.137Z,21.58
2018-06-14T19:28:08.770Z,21.55
2018-06-14T19:30:37.436Z,21.61
2018-06-14T19:33:06.111Z,21.66
2018-06-14T19:35:35.244Z,21.66
2018-06-14T19:38:04.177Z,21.63
2018-06-14T19:40:32.803Z,21.83
2018-06-14T19:43:01.516Z,21.66
2018-06-14T19:45:30.231Z,21.63
2018-06-14T19:48:00.201Z,21.43
2018-06-14T19:50:29.196Z,21.30
2018-06-14T19:52:59.021Z,21.12
2018-06-14T19:55:28.184Z,21.07
2018-06-14T19:57:57.255Z,21.01
2018-06-14T20:00:26.791Z,21.13
2018-06-14T20:02:56.504Z,21.08
2018-06-14T20:05:25.398Z,21.04
2018-06-14T20:07:54.211Z,21.04
2018-06-14T20:10:22.838Z,21.10
2018-06-14T20:12:51.468Z,21.11
2018-06-14T20:15:20.051Z,21.24
2018-06-14T20:17:48.670Z,21.27
2018-06-14T20:20:17.257Z,21.23
2018-06-14T20:22:45.897Z,21.13
2018-06-14T20:25:14.641Z,21.07
2018-06-14T20:27:43.318Z,21.05
2018-06-14T20:30:12.711Z,21.09
2018-06-14T20:32:41.404Z,21.08
2018-06-14T20:35:09.941Z,21.04
2018-06-14T20:37:38.971Z,20.90
2018-06-14T20:40:08.646Z,20.92
2018-06-14T20:42:37.954Z,20.81
2018-06-14T20:45:07.819Z,20.71
2018-06-14T20:47:36.854Z,20.57
2018-06-14T20:50:05.870Z,20.53
2018-06-14T20:52:36.111Z,20.52
2018-06-14T20:55:04.796Z,20.37
2018-06-14T20:57:33.986Z,20.38
2018-06-14T21:00:03.551Z,20.30
2018-06-14T21:02:32.717Z,20.22
2018-06-14T21:05:01.677Z,20.20
2018-06-14T21:07:30.610Z,20.27
2018-06-14T21:10:00.018Z,20.12
2018-06-14T21:12:28.949Z,20.04
2018-06-14T21:14:57.850Z,19.09
2018-06-14T21:17:26.596Z,19.80
2018-06-14T21:19:55.221Z,19.82
2018-06-14T21:22:23.888Z,19.72
2018-06-14T21:24:52.538Z,19.67
2018-06-14T21:27:21.361Z,19.86
2018-06-14T21:29:51.213Z,19.81
2018-06-14T21:32:20.463Z,19.62
2018-06-14T21:34:49.383Z,19.59
2018-06-14T21:37:18.126Z,19.73
2018-06-14T21:39:47.280Z,19.51
2018-06-14T21:42:15.936Z,19.45
2018-06-14T21:44:44.573Z,19.36
2018-06-14T21:47:13.538Z,19.74
2018-06-14T21:49:44.929Z,19.48
2018-06-14T21:52:14.286Z,19.28
2018-06-14T21:54:43.522Z,19.28
2018-06-14T21:57:12.478Z,19.20
2018-06-14T21:59:41.452Z,19.10
2018-06-14T22:02:10.376Z,19.04
2018-06-14T22:04:39.247Z,19.13
2018-06-14T22:07:12.312Z,18.95
2018-06-14T22:09:41.936Z,18.90
2018-06-14T22:12:11.349Z,18.90
2018-06-14T22:14:40.820Z,18.92
2018-06-14T22:17:10.456Z,18.97
2018-06-14T22:19:39.124Z,19.10
2018-06-14T22:22:08.770Z,19.24
2018-06-14T22:24:37.488Z,19.21
2018-06-14T22:27:06.153Z,19.46
2018-06-14T22:29:34.781Z,19.26
2018-06-14T22:32:03.356Z,19.30
2018-06-14T22:34:48.706Z,19.08
2018-06-14T22:37:17.351Z,18.98
2018-06-14T22:39:46.296Z,18.88
2018-06-14T22:42:15.225Z,19.10
2018-06-14T22:44:44.136Z,19.03
2018-06-14T22:47:13.039Z,18.99
2018-06-14T22:49:41.795Z,19.01
2018-06-14T22:53:13.656Z,18.85
2018-06-14T22:55:42.387Z,18.61
2018-06-14T22:58:11.216Z,18.50
2018-06-14T23:01:52.831Z,18.38
2018-06-14T23:04:27.603Z,18.26
2018-06-14T23:06:57.363Z,18.15
2018-06-14T23:10:41.709Z,18.05
2018-06-14T23:13:12.396Z,18.52
2018-06-14T23:15:40.948Z,18.41
2018-06-14T23:18:09.542Z,17.18
2018-06-14T23:20:38.473Z,18.33
2018-06-14T23:23:07.783Z,18.26
2018-06-14T23:25:37.011Z,18.27
2018-06-14T23:28:06.050Z,18.06
2018-06-14T23:30:34.713Z,18.15
2018-06-14T23:33:03.343Z,18.22
2018-06-14T23:35:31.948Z,18.68
2018-06-14T23:38:00.511Z,18.75
2018-06-14T23:40:29.308Z,18.67
2018-06-14T23:42:58.146Z,18.67
2018-06-14T23:45:27.731Z,18.51
2018-06-14T23:47:57.614Z,18.68
2018-06-14T23:50:27.171Z,18.66
2018-06-14T23:52:55.777Z,18.57
2018-06-14T23:55:24.390Z,18.46
2018-06-14T23:57:53.064Z,18.53
